Time;durP1;ratioP1;P1;durP2;ratioP2;P2;SDS_P1;SDS_P2;PMS_P1;PMS_P2;Temp;Humidity;BMP_temperature;BMP_pressure;BME280_temperature;BME280_humidity;BME280_pressure;Samples;Min_cycle;Max_cycle;Signal;HPM_P1;HPM_P2
2023/08/22 00:00:30;;;;;;;47.42;14.35;;;;;;;16.12;65.58;99327.97;4923545;29;20047;-88
2023/08/22 00:02:58;;;;;;;54.20;14.27;;;;;;;16.30;65.47;99341.50;4923938;29;20551;-86
2023/08/22 00:05:24;;;;;;;40.75;13.45;;;;;;;16.14;66.72;99317.41;4924582;29;20139;-88
2023/08/22 00:07:51;;;;;;;48.53;14.75;;;;;;;16.11;66.01;99304.31;4921560;29;20048;-88
2023/08/22 00:10:20;;;;;;;40.92;12.80;;;;;;;16.38;65.21;99346.06;4921464;29;20530;-88
2023/08/22 00:12:46;;;;;;;44.38;12.45;;;;;;;16.34;64.34;99337.69;4918417;29;20035;-88
2023/08/22 00:15:13;;;;;;;46.97;12.13;;;;;;;16.21;65.54;99294.75;4919805;29;20067;-87
2023/08/22 00:17:42;;;;;;;42.33;11.50;;;;;;;16.18;66.05;99284.41;4903809;29;20055;-87
2023/08/22 00:20:11;;;;;;;47.30;10.80;;;;;;;16.57;64.50;99337.13;4909974;29;20092;-88
2023/08/22 00:22:37;;;;;;;25.25;10.50;;;;;;;16.42;65.37;99309.16;4923187;29;20421;-89
2023/08/22 00:25:04;;;;;;;31.65;10.52;;;;;;;16.64;65.67;99331.78;4907598;29;20494;-88
2023/08/22 00:27:30;;;;;;;28.67;10.68;;;;;;;16.33;64.96;99277.34;4937815;29;20099;-88
2023/08/22 00:29:59;;;;;;;28.77;10.38;;;;;;;16.54;65.30;99310.22;4894619;29;20071;-88
2023/08/22 00:32:26;;;;;;;36.20;11.30;;;;;;;16.59;65.13;99316.31;4905744;29;20083;-88
2023/08/22 00:34:52;;;;;;;31.48;11.23;;;;;;;16.68;65.26;99325.19;4921823;29;20073;-88
2023/08/22 00:37:19;;;;;;;35.63;11.43;;;;;;;16.43;65.63;99285.13;4919197;29;20094;-88
2023/08/22 00:39:45;;;;;;;28.13;11.38;;;;;;;16.49;64.68;99297.50;4907074;29;20055;-88
2023/08/22 00:42:11;;;;;;;33.05;10.82;;;;;;;16.49;65.44;99303.03;4932655;29;20032;-88
2023/08/22 00:44:38;;;;;;;;;;;;;;;16.64;64.40;99321.56;4921982;29;20062;-87
2023/08/22 00:47:04;;;;;;;31.88;10.07;;;;;;;16.44;64.14;99293.03;4933660;29;19945;-88
2023/08/22 00:49:32;;;;;;;37.78;10.25;;;;;;;16.62;64.74;99321.13;4888271;29;20566;-88
2023/08/22 00:51:59;;;;;;;23.50;9.82;;;;;;;16.59;64.36;99316.31;4920934;29;20123;-87
2023/08/22 00:54:27;;;;;;;32.92;9.80;;;;;;;16.61;65.50;99318.69;4919642;29;20063;-88
2023/08/22 00:56:54;;;;;;;22.10;7.35;;;;;;;16.40;63.70;99286.63;4890321;29;20036;-88
2023/08/22 00:59:20;;;;;;;21.85;7.78;;;;;;;16.44;63.78;99282.00;4923231;29;20044;-88
2023/08/22 01:01:46;;;;;;;24.35;7.85;;;;;;;16.37;63.65;99256.16;4940290;29;20047;-89
2023/08/22 01:04:12;;;;;;;22.52;7.30;;;;;;;16.44;63.67;99267.41;4941115;29;20051;-88
2023/08/22 01:06:50;;;;;;;15.98;6.65;;;;;;;16.54;62.42;99269.63;4925087;29;20085;-87
2023/08/22 01:09:40;;;;;;;21.08;6.35;;;;;;;16.44;63.43;99240.59;4920168;29;20464;-88
2023/08/22 01:12:32;;;;;;;22.52;6.90;;;;;;;16.76;62.83;99300.59;4906979;29;20050;-87
2023/08/22 01:15:26;;;;;;;16.00;6.82;;;;;;;16.76;61.12;99295.88;4896520;29;20083;-87
2023/08/22 01:17:57;;;;;;;17.52;6.22;;;;;;;16.67;62.60;99284.97;4933080;29;20131;-87
2023/08/22 01:20:26;;;;;;;18.77;6.40;;;;;;;16.51;62.89;99259.31;4920118;29;20112;-88
2023/08/22 01:22:52;;;;;;;16.95;6.45;;;;;;;16.73;63.21;99284.72;4883881;29;20048;-88
2023/08/22 01:25:18;;;;;;;17.67;6.78;;;;;;;16.41;62.37;99241.31;4888645;29;20051;-87
2023/08/22 01:27:48;;;;;;;;;;;;;;;16.69;62.84;99279.09;4907363;29;20175;-89
2023/08/22 01:30:30;;;;;;;21.08;6.30;;;;;;;16.44;64.05;99245.31;4904972;29;19956;-90
2023/08/22 01:33:03;;;;;;;16.80;7.00;;;;;;;16.63;63.32;99275.78;4892862;29;20042;-87
2023/08/22 01:35:32;;;;;;;22.95;6.97;;;;;;;16.34;62.92;99227.31;4905934;29;20044;-88
2023/08/22 01:37:59;;;;;;;18.83;6.60;;;;;;;16.30;63.56;99229.19;4920567;29;20055;-87
2023/08/22 01:40:29;;;;;;;21.42;7.30;;;;;;;16.57;64.38;99271.69;4922090;29;20197;-87
2023/08/22 01:42:56;;;;;;;15.35;6.80;;;;;;;16.20;63.75;99213.97;4913376;29;20502;-87
2023/08/22 01:45:22;;;;;;;15.75;6.80;;;;;;;16.37;65.04;99242.38;4939187;29;20129;-88
2023/08/22 01:47:49;;;;;;;25.08;6.43;;;;;;;16.30;65.41;99234.72;4919331;29;20422;-87
2023/08/22 01:50:15;;;;;;;16.08;6.72;;;;;;;16.24;66.00;99232.56;4903101;29;20040;-88
2023/08/22 01:52:41;;;;;;;20.10;7.45;;;;;;;16.13;65.08;99224.81;4920393;29;20055;-87
2023/08/22 01:55:07;;;;;;;35.05;8.75;;;;;;;16.17;66.31;99239.47;4903688;29;20044;-88
2023/08/22 01:57:33;;;;;;;31.70;8.63;;;;;;;15.83;66.24;99199.56;4888794;29;20513;-88
2023/08/22 02:00:00;;;;;;;19.00;9.25;;;;;;;15.94;66.71;99233.72;4919301;29;20058;-86
2023/08/22 02:02:26;;;;;;;22.50;8.68;;;;;;;16.00;66.73;99250.84;4905608;29;20044;-88
2023/08/22 02:04:52;;;;;;;25.35;8.98;;;;;;;16.02;67.13;99256.78;4902845;29;20048;-87
2023/08/22 02:07:18;;;;;;;33.20;9.15;;;;;;;16.03;66.84;99247.38;4920355;29;20047;-87
2023/08/22 02:09:45;;;;;;;23.35;9.45;;;;;;;15.82;67.66;99219.19;4905158;29;20056;-88
2023/08/22 02:12:11;;;;;;;24.20;8.55;;;;;;;15.97;67.60;99244.06;4898024;29;20046;-87
2023/08/22 02:14:37;;;;;;;25.98;9.98;;;;;;;15.78;67.09;99221.03;4939404;29;20036;-87
2023/08/22 02:17:03;;;;;;;36.38;11.07;;;;;;;15.80;67.14;99232.53;4904211;29;20075;-87
2023/08/22 02:19:29;;;;;;;36.43;10.90;;;;;;;15.70;67.24;99212.56;4904644;29;20102;-87
2023/08/22 02:21:55;;;;;;;36.45;10.52;;;;;;;15.71;67.27;99222.44;4906123;29;20127;-88
2023/08/22 02:24:22;;;;;;;35.22;11.68;;;;;;;15.66;67.74;99203.41;4903192;29;20043;-88
2023/08/22 02:26:48;;;;;;;33.80;10.73;;;;;;;15.74;67.57;99220.94;4934564;29;20043;-88
2023/08/22 02:29:14;;;;;;;24.30;10.00;;;;;;;15.55;67.27;99205.00;4918811;29;20047;-87
2023/08/22 02:31:40;;;;;;;35.25;10.38;;;;;;;15.66;67.21;99222.69;4903055;29;20044;-88
2023/08/22 02:34:06;;;;;;;34.33;10.00;;;;;;;15.65;67.08;99215.53;4872613;29;20494;-87
2023/08/22 02:36:32;;;;;;;42.08;12.75;;;;;;;15.61;67.65;99216.59;4903862;29;20040;-88
2023/08/22 02:38:58;;;;;;;39.00;12.70;;;;;;;15.47;68.47;99201.25;4886888;29;20533;-88
2023/08/22 02:41:24;;;;;;;46.47;13.05;;;;;;;15.55;69.51;99216.03;4907287;29;20040;-87
2023/08/22 02:43:50;;;;;;;51.72;14.25;;;;;;;15.47;69.90;99201.25;4878494;29;20051;-87
2023/08/22 02:46:17;;;;;;;37.47;15.00;;;;;;;15.45;71.39;99200.78;4884354;29;20060;-88
2023/08/22 02:48:43;;;;;;;40.47;14.73;;;;;;;15.38;72.60;99191.50;4902838;29;20048;-88
2023/08/22 02:51:09;;;;;;;40.85;14.98;;;;;;;15.65;72.94;99229.31;4889405;29;20035;-88
2023/08/22 02:53:35;;;;;;;43.72;15.48;;;;;;;15.45;73.52;99199.97;4904347;29;20497;-87
2023/08/22 02:56:01;;;;;;;44.28;15.63;;;;;;;15.53;74.15;99212.81;4939176;29;20039;-90
2023/08/22 02:58:27;;;;;;;54.50;15.90;;;;;;;15.61;74.67;99231.16;4923262;29;20395;-87
2023/08/22 03:00:54;;;;;;;54.53;15.52;;;;;;;15.58;74.34;99226.34;4904619;29;20702;-87
2023/08/22 03:03:22;;;;;;;45.80;14.98;;;;;;;15.63;74.40;99231.63;4923207;29;20039;-87
2023/08/22 03:05:48;;;;;;;35.70;15.50;;;;;;;15.46;74.60;99212.59;4907285;29;20040;-87
2023/08/22 03:08:14;;;;;;;53.60;16.05;;;;;;;15.31;74.44;99186.59;4925567;29;20071;-87
2023/08/22 03:10:40;;;;;;;44.80;14.57;;;;;;;15.36;74.90;99191.03;4906418;29;20039;-88
2023/08/22 03:13:07;;;;;;;44.33;15.68;;;;;;;15.69;75.06;99238.53;4919824;29;20050;-87
2023/08/22 03:15:35;;;;;;;52.75;16.63;;;;;;;15.44;75.39;99184.59;4907544;29;20487;-89
2023/08/22 03:18:02;;;;;;;45.03;16.20;;;;;;;15.57;75.92;99208.22;4905318;29;20426;-88
2023/08/22 03:20:28;;;;;;;51.03;16.60;;;;;;;15.61;76.17;99216.59;4924603;29;20541;-88
2023/08/22 03:22:56;;;;;;;49.65;17.60;;;;;;;15.78;76.46;99213.56;4903649;29;20044;-87
2023/08/22 03:25:22;;;;;;;38.53;16.20;;;;;;;15.99;76.06;99227.16;4904783;29;20498;-87
2023/08/22 03:27:49;;;;;;;45.80;15.93;;;;;;;15.87;75.87;99202.41;4888032;29;20052;-87
2023/08/22 03:30:15;;;;;;;49.05;17.13;;;;;;;15.79;75.28;99178.53;4872294;29;20059;-85
2023/08/22 03:32:41;;;;;;;63.50;17.80;;;;;;;16.02;75.30;99198.06;4927781;29;20103;-87
2023/08/22 03:35:09;;;;;;;55.30;16.27;;;;;;;16.07;73.96;99190.38;4894876;29;20040;-87
2023/08/22 03:37:39;;;;;;;46.45;15.32;;;;;;;16.24;73.58;99216.00;4913036;29;20693;-87
2023/08/22 03:40:05;;;;;;;49.60;14.85;;;;;;;16.26;72.64;99197.97;4922064;29;20048;-87
2023/08/22 03:42:31;;;;;;;53.55;14.98;;;;;;;16.35;72.20;99193.06;4901283;29;20044;-87
2023/08/22 03:45:03;;;;;;;45.40;15.10;;;;;;;16.45;72.43;99211.84;4890050;29;20048;-87
2023/08/22 03:47:30;;;;;;;41.42;15.02;;;;;;;16.25;72.61;99177.03;4920295;29;20048;-87
2023/08/22 03:49:57;;;;;;;45.45;15.38;;;;;;;16.31;72.55;99186.66;4923351;29;20054;-86
2023/08/22 03:52:26;;;;;;;45.42;15.40;;;;;;;16.12;72.81;99162.50;4908876;29;20090;-87
2023/08/22 03:54:52;;;;;;;44.35;15.13;;;;;;;16.25;72.66;99171.53;4891842;29;20092;-87
2023/08/22 03:57:18;;;;;;;45.90;14.57;;;;;;;16.18;72.23;99150.06;4899728;29;20051;-87
2023/08/22 03:59:46;;;;;;;45.60;14.95;;;;;;;16.24;71.75;99152.56;4918967;29;20051;-87
2023/08/22 04:02:12;;;;;;;43.40;14.13;;;;;;;16.28;71.57;99146.00;4909950;29;20111;-86
2023/08/22 04:04:38;;;;;;;42.47;14.02;;;;;;;16.36;70.61;99149.75;4914070;29;20064;-87
2023/08/22 04:07:04;;;;;;;37.35;12.65;;;;;;;16.32;70.06;99135.84;4912709;29;20028;-86
2023/08/22 04:09:30;;;;;;;37.53;13.30;;;;;;;16.37;69.99;99137.53;4921155;29;20036;-85
2023/08/22 04:11:59;;;;;;;32.33;12.43;;;;;;;16.65;69.06;99165.84;4897979;29;20120;-87
2023/08/22 04:14:25;;;;;;;35.58;13.70;;;;;;;16.69;69.65;99163.19;4894241;29;20044;-86
2023/08/22 04:16:51;;;;;;;46.65;12.75;;;;;;;16.71;69.29;99160.06;4908584;29;20047;-87
2023/08/22 04:19:17;;;;;;;36.45;12.32;;;;;;;16.93;69.24;99183.47;4929635;29;20494;-87
2023/08/22 04:21:43;;;;;;;36.70;13.27;;;;;;;17.01;68.65;99193.53;4940526;29;20040;-87
2023/08/22 04:24:09;;;;;;;32.93;11.07;;;;;;;16.86;68.09;99162.03;4906315;29;20111;-88
2023/08/22 04:26:37;;;;;;;27.40;9.85;;;;;;;16.85;67.38;99154.88;4893625;29;20557;-87
2023/08/22 04:29:03;;;;;;;58.03;11.82;;;;;;;16.94;66.89;99151.94;4893752;29;20068;-88
2023/08/22 04:31:29;;;;;;;26.60;10.25;;;;;;;17.01;67.02;99152.09;4908805;29;20048;-87
2023/08/22 04:33:55;;;;;;;37.95;11.52;;;;;;;17.36;67.75;99194.34;4878308;29;20048;-86
2023/08/22 04:36:21;;;;;;;25.80;10.30;;;;;;;17.10;66.68;99136.94;4930572;29;20040;-86
2023/08/22 04:38:49;;;;;;;25.67;10.63;;;;;;;17.33;66.80;99153.59;4939072;29;20048;-87
2023/08/22 04:41:18;;;;;;;30.95;11.15;;;;;;;17.66;67.50;99177.19;4937160;29;20059;-87
2023/08/22 04:44:02;;;;;;;42.80;11.07;;;;;;;17.69;65.95;99172.91;4923792;29;20075;-87
2023/08/22 04:46:28;;;;;;;29.33;10.70;;;;;;;17.69;65.93;99168.19;4897155;29;20072;-86
2023/08/22 04:48:54;;;;;;;36.38;11.77;;;;;;;17.83;65.44;99182.31;4910431;29;20322;-87
2023/08/22 04:51:20;;;;;;;34.25;11.25;;;;;;;17.89;66.55;99184.78;4912619;29;20047;-88
2023/08/22 04:53:46;;;;;;;31.90;13.33;;;;;;;17.84;66.46;99155.44;4910135;29;20048;-87
2023/08/22 04:56:12;;;;;;;43.27;12.37;;;;;;;17.69;66.50;99128.69;4905846;29;20044;-87
2023/08/22 04:58:38;;;;;;;30.37;12.17;;;;;;;18.10;66.64;99184.41;4901282;29;20048;-89
2023/08/22 05:01:08;;;;;;;30.60;12.37;;;;;;;18.03;67.54;99157.41;4918502;29;20402;-90
2023/08/22 05:03:34;;;;;;;41.53;11.88;;;;;;;17.90;66.19;99131.88;4921374;29;20093;-87
2023/08/22 05:06:00;;;;;;;40.63;12.27;;;;;;;18.00;64.62;99147.06;4928421;29;20035;-87
2023/08/22 05:08:26;;;;;;;38.27;11.83;;;;;;;18.04;66.35;99143.19;4907813;29;20048;-86
2023/08/22 05:10:54;;;;;;;47.20;13.10;;;;;;;18.29;66.53;99176.06;4917009;29;20050;-91
2023/08/22 05:13:23;;;;;;;66.50;18.65;;;;;;;18.23;66.21;99145.13;4933631;29;20048;-87
2023/08/22 05:15:49;;;;;;;40.05;13.23;;;;;;;18.26;64.90;99138.06;4905782;29;20040;-87
2023/08/22 05:18:16;;;;;;;40.03;12.90;;;;;;;18.39;65.11;99144.22;4921526;29;20055;-88
2023/08/22 05:20:42;;;;;;;40.53;12.38;;;;;;;18.34;64.98;99131.47;4898469;29;20044;-89
2023/08/22 05:23:09;;;;;;;40.58;14.45;;;;;;;18.83;65.11;99177.78;4912193;29;20608;-88
2023/08/22 05:25:36;;;;;;;36.47;12.00;;;;;;;18.70;64.63;99135.59;4910382;29;20070;-87
2023/08/22 05:28:02;;;;;;;49.20;12.15;;;;;;;18.77;63.10;99148.78;4924173;29;20040;-86
2023/08/22 05:30:33;;;;;;;41.67;12.20;;;;;;;18.66;62.63;99133.97;4923190;29;20048;-89
2023/08/22 05:32:59;;;;;;;26.35;11.70;;;;;;;18.67;62.02;99118.94;4915705;29;20511;-87
2023/08/22 05:35:25;;;;;;;34.42;12.10;;;;;;;18.80;61.59;99123.13;4923634;29;20064;-85
2023/08/22 05:37:51;;;;;;;32.43;11.27;;;;;;;19.13;61.65;99171.50;4919690;29;20047;-91
2023/08/22 05:40:19;;;;;;;31.50;11.18;;;;;;;19.17;61.24;99167.63;4928825;29;20078;-86
2023/08/22 05:42:45;;;;;;;32.97;10.93;;;;;;;19.28;61.69;99153.91;4895088;29;20044;-87
2023/08/22 05:45:11;;;;;;;23.70;10.20;;;;;;;19.27;62.05;99110.75;4924928;29;20050;-87
2023/08/22 05:47:39;;;;;;;23.92;11.18;;;;;;;19.59;61.30;99136.06;4900513;29;20328;-87
2023/08/22 05:50:05;;;;;;;31.13;11.07;;;;;;;;;;4904895;29;20054;-88
2023/08/22 05:52:34;;;;;;;31.55;10.55;;;;;;;20.13;58.55;99164.44;4933100;29;20040;-89
2023/08/22 05:54:59;;;;;;;40.85;10.70;;;;;;;19.95;58.83;99119.88;4913571;29;20044;-89
2023/08/22 05:57:28;;;;;;;26.75;10.27;;;;;;;20.11;58.97;99147.38;4908440;29;20584;-87
2023/08/22 05:59:54;;;;;;;33.67;10.07;;;;;;;20.10;58.96;99137.47;4926397;29;20103;-87
2023/08/22 06:02:20;;;;;;;26.03;9.37;;;;;;;20.00;58.65;99129.81;4926636;29;20067;-88
2023/08/22 06:04:47;;;;;;;27.13;9.50;;;;;;;20.03;59.86;99115.19;4916660;29;20315;-87
2023/08/22 06:07:14;;;;;;;41.67;10.88;;;;;;;19.91;57.64;99119.03;4918591;29;20307;-88
2023/08/22 06:09:40;;;;;;;28.33;9.77;;;;;;;19.77;58.38;99088.38;4914348;29;20055;-92
2023/08/22 06:12:07;;;;;;;33.03;10.43;;;;;;;19.76;57.33;99106.97;4890293;29;20060;-88
2023/08/22 06:14:35;;;;;;;29.20;10.05;;;;;;;19.76;57.01;99120.84;4895310;29;20039;-92
2023/08/22 06:17:02;;;;;;;26.17;10.20;;;;;;;19.65;58.79;99093.00;4903602;29;20063;-87
2023/08/22 06:19:28;;;;;;;30.17;10.40;;;;;;;19.90;59.01;99129.34;4913294;29;20036;-87
2023/08/22 06:21:54;;;;;;;23.87;10.10;;;;;;;19.78;57.30;99092.75;4896165;29;20479;-90
2023/08/22 06:24:22;;;;;;;24.55;9.25;;;;;;;20.13;58.51;99125.59;4882428;29;20040;-87
2023/08/22 06:26:49;;;;;;;21.40;9.60;;;;;;;20.13;57.68;99109.75;4898962;29;20739;-92
2023/08/22 06:29:20;;;;;;;35.75;9.77;;;;;;;20.00;56.18;99099.28;4928935;29;20461;-91
2023/08/22 06:31:47;;;;;;;18.83;8.60;;;;;;;20.02;56.12;99108.03;4920789;29;20044;-88
2023/08/22 06:34:19;;;;;;;15.30;8.60;;;;;;;20.10;56.86;99096.66;4915532;29;20498;-92
2023/08/22 06:36:46;;;;;;;26.73;9.15;;;;;;;20.42;56.94;99127.44;4875188;29;20092;-91
2023/08/22 06:39:14;;;;;;;23.67;10.15;;;;;;;20.17;56.08;99101.47;4909289;29;20048;-90
2023/08/22 06:41:40;;;;;;;30.40;10.23;;;;;;;20.22;55.49;99109.41;4915478;29;20102;-86
2023/08/22 06:44:10;;;;;;;24.33;10.30;;;;;;;20.21;57.10;99095.94;4924028;29;20048;-89
2023/08/22 06:46:37;;;;;;;26.95;10.90;;;;;;;20.19;57.68;99077.69;4906789;29;20534;-89
2023/08/22 06:49:03;;;;;;;19.70;10.43;;;;;;;20.57;56.80;99120.06;4937190;29;20043;-91
2023/08/22 06:51:30;;;;;;;41.35;11.82;;;;;;;20.49;57.07;99095.38;4913421;29;20082;-88
2023/08/22 06:53:57;;;;;;;37.22;11.07;;;;;;;20.56;56.29;99109.34;4920263;29;20032;-87
2023/08/22 06:56:23;;;;;;;31.65;10.98;;;;;;;20.41;55.76;99070.31;4932675;29;20040;-89
2023/08/22 06:58:49;;;;;;;40.45;11.40;;;;;;;20.71;55.51;99105.50;4912058;29;20135;-89
2023/08/22 07:01:15;;;;;;;40.45;12.50;;;;;;;20.62;54.92;99086.38;4926274;29;20040;-89
2023/08/22 07:03:42;;;;;;;33.85;13.50;;;;;;;20.88;54.64;99106.78;4938065;29;20079;-87
2023/08/22 07:06:08;;;;;;;31.83;11.38;;;;;;;20.53;53.86;99055.38;4917760;29;20056;-86
2023/08/22 07:08:34;;;;;;;32.77;11.30;;;;;;;20.57;53.48;99060.97;4943331;29;20051;-87
2023/08/22 07:11:02;;;;;;;47.95;13.77;;;;;;;20.55;53.70;99036.34;4939687;29;20023;-87
2023/08/22 07:13:29;;;;;;;41.45;15.48;;;;;;;20.97;54.13;99071.13;4928441;29;20082;-87
2023/08/22 07:15:55;;;;;;;43.55;13.00;;;;;;;21.26;54.22;99076.84;4933635;29;20075;-89
2023/08/22 07:18:27;;;;;;;44.17;12.57;;;;;;;21.23;51.93;99058.16;4932802;29;20605;-87
2023/08/22 07:20:55;;;;;;;38.53;13.77;;;;;;;21.19;53.06;99063.69;4896405;29;20200;-88
2023/08/22 07:23:21;;;;;;;38.08;13.32;;;;;;;21.04;54.19;99034.22;4912096;29;20062;-88
2023/08/22 07:25:52;;;;;;;;;;;;;;;21.47;54.73;99076.94;4939124;29;20056;-91
2023/08/22 07:28:18;;;;;;;53.13;15.20;;;;;;;21.39;54.13;99053.09;4930679;29;20523;-87
2023/08/22 07:30:47;;;;;;;109.00;15.70;;;;;;;21.52;52.82;99064.63;4935117;29;20054;-90
2023/08/22 07:33:14;;;;;;;44.70;13.20;;;;;;;21.43;50.82;99047.53;4928415;29;20072;-88
2023/08/22 07:35:41;;;;;;;46.38;13.20;;;;;;;21.46;52.79;99036.41;4908034;29;20071;-89
2023/08/22 07:38:07;;;;;;;41.00;11.50;;;;;;;21.62;49.94;99057.50;4908289;29;20040;-94
2023/08/22 07:40:38;;;;;;;95.97;12.80;;;;;;;21.62;50.26;99046.38;4896171;29;20028;-88
2023/08/22 07:43:04;;;;;;;47.50;11.35;;;;;;;21.59;51.41;99020.16;4915695;29;20113;-91
2023/08/22 07:45:30;;;;;;;37.75;11.88;;;;;;;21.76;50.40;99038.84;4939834;29;20058;-91
2023/08/22 07:47:58;;;;;;;35.20;11.50;;;;;;;21.73;49.93;99036.88;4908313;29;20040;-86
2023/08/22 07:50:24;;;;;;;32.22;10.93;;;;;;;21.90;52.05;99046.44;4912885;29;20062;-87
2023/08/22 07:52:51;;;;;;;40.03;11.73;;;;;;;21.84;52.50;99038.88;4914521;29;20134;-87
2023/08/22 07:55:17;;;;;;;34.65;11.52;;;;;;;21.75;50.92;99016.97;4933598;29;20047;-87
2023/08/22 07:57:45;;;;;;;43.83;12.10;;;;;;;21.69;50.75;99007.44;4926968;29;20367;-88
2023/08/22 08:00:12;;;;;;;;;;;;;;;22.02;49.20;99059.97;4911789;29;20126;-88
2023/08/22 08:02:41;;;;;;;23.15;9.38;;;;;;;21.57;49.39;99003.84;4924688;29;20012;-86
2023/08/22 08:05:12;;;;;;;42.08;9.98;;;;;;;21.88;49.73;99034.09;4921050;29;20072;-89
2023/08/22 08:07:39;;;;;;;32.47;8.82;;;;;;;22.35;48.89;99055.22;4903991;29;20048;-87
2023/08/22 08:10:13;;;;;;;29.05;10.23;;;;;;;22.09;47.11;99003.50;4921331;29;20055;-88
2023/08/22 08:12:42;;;;;;;34.78;10.85;;;;;;;22.35;46.65;99044.09;4918730;29;20114;-86
2023/08/22 08:15:08;;;;;;;188.27;15.85;;;;;;;22.03;47.03;98980.81;4919159;29;20032;-86
2023/08/22 08:17:37;;;;;;;23.67;8.07;;;;;;;22.32;44.83;99017.03;4912154;29;20054;-86
2023/08/22 08:20:04;;;;;;;36.10;9.25;;;;;;;22.43;45.98;99028.16;4914809;29;20060;-87
2023/08/22 08:22:35;;;;;;;26.77;8.40;;;;;;;22.46;47.47;99008.66;4908478;29;20039;-86
2023/08/22 08:25:05;;;;;;;20.05;7.20;;;;;;;22.47;45.72;98995.53;4909681;29;20044;-87
2023/08/22 08:27:32;;;;;;;21.63;7.90;;;;;;;22.34;45.03;98997.13;4923781;29;20036;-86
2023/08/22 08:29:59;;;;;;;20.85;7.40;;;;;;;22.45;44.96;99021.00;4893391;29;20115;-86
2023/08/22 08:32:26;;;;;;;18.88;6.50;;;;;;;22.38;45.39;99004.28;4910369;29;20449;-87
2023/08/22 08:34:54;;;;;;;13.05;6.72;;;;;;;22.49;46.35;99026.56;4930284;29;20031;-86
2023/08/22 08:37:21;;;;;;;20.38;7.78;;;;;;;22.46;46.81;99019.00;4907141;29;20055;-87
2023/08/22 08:39:51;;;;;;;33.20;11.95;;;;;;;22.45;47.91;99014.63;4914799;29;20044;-86
2023/08/22 08:42:18;;;;;;;38.13;10.05;;;;;;;22.57;47.05;99035.69;4903087;29;20039;-86
2023/08/22 08:44:47;;;;;;;23.02;7.75;;;;;;;22.35;47.16;99013.47;4928271;29;20056;-88
2023/08/22 08:47:14;;;;;;;24.17;7.45;;;;;;;22.37;49.95;99011.06;4883868;29;20040;-89
2023/08/22 08:49:41;;;;;;;25.15;7.30;;;;;;;22.39;46.47;99028.16;4899124;29;20048;-88
2023/08/22 08:52:08;;;;;;;18.92;7.15;;;;;;;22.39;47.68;99041.31;4910889;29;20040;-88
2023/08/22 08:54:35;;;;;;;17.10;7.70;;;;;;;21.99;47.45;98993.97;4939539;29;20070;-88
2023/08/22 08:57:04;;;;;;;19.98;6.85;;;;;;;22.27;49.30;99048.84;4934242;29;20067;-89
2023/08/22 08:59:31;;;;;;;19.48;7.18;;;;;;;21.78;49.04;98980.81;4906673;29;20046;-86
2023/08/22 09:01:59;;;;;;;;;;;;;;;22.17;50.09;99041.31;4912686;29;20039;-89
2023/08/22 09:04:28;;;;;;;22.15;7.60;;;;;;;22.04;50.17;99042.84;4927593;29;19958;-88
2023/08/22 09:06:55;;;;;;;22.13;7.18;;;;;;;21.85;51.36;99026.53;4888522;29;20051;-89
2023/08/22 09:09:24;;;;;;;39.25;7.50;;;;;;;21.90;52.12;99056.78;4918392;29;20079;-87
2023/08/22 09:11:52;;;;;;;18.13;6.55;;;;;;;21.49;50.65;99007.81;4920359;29;20043;-88
2023/08/22 09:14:24;;;;;;;26.35;7.13;;;;;;;21.74;52.47;99060.72;4916096;29;20573;-88
2023/08/22 09:16:51;;;;;;;21.08;7.50;;;;;;;21.66;51.08;99031.28;4922124;29;20068;-88
2023/08/22 09:19:19;;;;;;;56.65;9.98;;;;;;;21.65;51.54;99040.81;4918489;29;20050;-90
2023/08/22 09:22:02;;;;;;;26.02;6.68;;;;;;;21.74;49.62;99057.13;4914788;29;20051;-87
2023/08/22 09:24:28;;;;;;;15.48;6.45;;;;;;;21.60;51.79;99032.88;4916111;29;20638;-88
2023/08/22 09:26:54;;;;;;;11.88;5.43;;;;;;;21.57;51.17;99034.44;4909971;29;20066;-90
2023/08/22 09:29:32;;;;;;;9.25;4.30;;;;;;;21.08;49.47;98996.13;4913887;29;20730;-89
2023/08/22 09:32:06;;;;;;;10.68;4.47;;;;;;;21.34;50.16;99031.16;4910737;29;20044;-88
2023/08/22 09:34:51;;;;;;;67.15;8.48;;;;;;;21.40;49.08;99051.88;4924301;29;20958;-87
2023/08/22 09:37:35;;;;;;;26.30;5.60;;;;;;;21.35;50.06;99050.25;4911084;29;20043;-88
2023/08/22 09:40:05;;;;;;;12.27;5.28;;;;;;;21.39;49.89;99061.41;4914459;29;20063;-90
2023/08/22 09:42:34;;;;;;;25.83;6.03;;;;;;;21.38;51.29;99048.69;4924723;29;20135;-89
2023/08/22 09:45:05;;;;;;;19.92;7.30;;;;;;;20.98;51.31;99008.00;4943171;29;20043;-90
2023/08/22 09:47:44;;;;;;;22.17;7.60;;;;;;;21.25;53.11;99055.75;5108642;23;20770;-90
2023/08/22 09:50:17;;;;;;;24.90;8.52;;;;;;;20.88;53.08;99020.66;4894418;29;20140;-87
2023/08/22 09:52:49;;;;;;;35.13;7.05;;;;;;;21.04;53.40;99054.47;4907596;29;20044;-88
2023/08/22 09:55:17;;;;;;;25.63;6.95;;;;;;;20.81;54.05;99045.63;4901889;29;20032;-88
2023/08/22 11:47:25;;;;;;;17.38;9.43;;;;;;;19.76;65.51;99098.66;5697620;23;20056;-90
2023/08/22 12:08:37;;;;;;;22.92;8.02;;;;;;;20.42;61.81;99077.47;5236731;23;20080;-88
2023/08/22 12:29:44;;;;;;;17.85;6.85;;;;;;;20.73;57.59;99093.97;4953189;23;20055;-90
2023/08/22 12:46:20;;;;;;;13.95;6.50;;;;;;;20.51;57.68;99087.50;5044158;23;20148;-90
2023/08/22 12:53:22;;;;;;;13.65;7.70;;;;;;;20.68;59.77;99094.34;4894575;29;20089;-91
2023/08/22 13:09:10;;;;;;;22.25;9.93;;;;;;;20.48;60.36;99093.78;5097163;23;20051;-93
2023/08/22 13:25:02;;;;;;;23.88;11.50;;;;;;;20.34;59.10;99106.38;5224981;23;20529;-87
2023/08/22 13:43:41;;;;;;;22.42;10.38;;;;;;;20.34;60.29;99075.03;5010171;23;20051;-89
2023/08/22 14:25:49;;;;;;;293.05;135.93;;;;;;;20.30;60.00;99077.78;5012494;23;20127;-87
2023/08/22 14:28:15;;;;;;;172.70;78.07;;;;;;;20.18;61.08;99050.31;4873234;29;20040;-89
2023/08/22 16:23:19;;;;;;;61.78;26.38;;;;;;;19.05;68.52;99034.06;4919912;29;20279;-90
2023/08/22 16:25:47;;;;;;;56.00;26.35;;;;;;;19.08;67.80;99036.09;4915083;29;20040;-87
2023/08/22 16:28:15;;;;;;;64.03;25.88;;;;;;;18.85;68.36;99008.47;4925690;29;20044;-87
2023/08/22 16:30:42;;;;;;;51.47;24.90;;;;;;;18.96;68.20;99026.03;4926334;29;20422;-89
2023/08/22 16:33:08;;;;;;;54.33;24.47;;;;;;;18.98;69.02;99041.09;4927719;29;20068;-88
2023/08/22 16:35:38;;;;;;;58.70;23.60;;;;;;;19.05;69.23;99059.00;4894649;29;20415;-88
2023/08/22 16:38:42;;;;;;;53.22;24.27;;;;;;;18.97;69.40;99052.53;4635986;27;15132312;-91
2023/08/22 16:41:10;;;;;;;52.35;24.00;;;;;;;18.82;69.67;99034.16;5150399;27;20038;-90
2023/08/22 16:44:07;;;;;;;45.60;22.00;;;;;;;18.96;69.71;99056.50;5155399;27;20034;-90
2023/08/22 16:46:35;;;;;;;43.38;21.52;;;;;;;18.83;69.78;99041.28;5167585;27;20070;-87
2023/08/22 16:49:02;;;;;;;46.13;21.88;;;;;;;18.63;70.01;99019.22;5170957;27;20098;-86
2023/08/22 16:51:29;;;;;;;;;;;;;;;18.95;69.50;99064.00;5163513;27;20050;-84
2023/08/22 16:53:57;;;;;;;50.45;22.65;;;;;;;18.70;69.52;99041.47;5167066;27;19940;-86
2023/08/22 16:56:27;;;;;;;58.25;22.90;;;;;;;18.72;69.71;99058.53;5171211;27;20015;-88
2023/08/22 16:58:56;;;;;;;51.08;23.25;;;;;;;18.83;69.83;99069.78;5164658;27;20024;-86
2023/08/22 17:01:42;;;;;;;50.15;22.58;;;;;;;18.83;70.20;99077.28;5144460;28;20043;-85
2023/08/22 17:04:15;;;;;;;54.72;21.20;;;;;;;18.73;70.59;99065.69;5153387;27;20019;-84
2023/08/22 17:06:56;;;;;;;55.60;20.48;;;;;;;18.82;70.08;99075.69;5186525;27;20050;-86
2023/08/22 17:09:31;;;;;;;59.10;20.95;;;;;;;18.69;69.56;99072.31;5133498;28;20048;-85
2023/08/22 17:12:27;;;;;;;41.13;17.33;;;;;;;18.66;69.11;99061.97;5147541;28;20065;-86
2023/08/22 17:15:47;;;;;;;49.10;17.67;;;;;;;18.29;68.70;99016.38;5156085;28;20016;-91
2023/08/22 17:18:54;;;;;;;39.88;14.68;;;;;;;18.69;67.98;99078.66;5160511;27;20039;-87
2023/08/22 17:21:25;;;;;;;46.63;14.55;;;;;;;18.29;67.26;99018.34;5139067;28;20051;-86
2023/08/22 17:23:52;;;;;;;32.92;13.40;;;;;;;18.67;67.46;99080.19;5086554;28;20042;-89
2023/08/22 17:26:57;;;;;;;34.47;13.13;;;;;;;18.65;66.51;99082.53;5132154;28;20039;-88
2023/08/22 17:29:24;;;;;;;33.00;12.95;;;;;;;18.64;66.79;99072.63;5144097;28;20043;-89